sensor_id;sensor_type;location;lat;lon;timestamp;P1;durP1;ratioP1;P2;durP2;ratioP2
68976;SDS011;56029;52.568;13.588;2024-01-30T00:00:22;13.17;;;6.77;;
68976;SDS011;56029;52.568;13.588;2024-01-30T00:03:08;17.83;;;7.53;;
68976;SDS011;56029;52.568;13.588;2024-01-30T00:05:33;15.07;;;7.40;;
68976;SDS011;56029;52.568;13.588;2024-01-30T00:07:59;14.82;;;7.35;;
68976;SDS011;56029;52.568;13.588;2024-01-30T00:10:24;15.70;;;7.30;;
68976;SDS011;56029;52.568;13.588;2024-01-30T00:12:50;15.10;;;7.10;;
68976;SDS011;56029;52.568;13.588;2024-01-30T00:15:15;14.87;;;7.33;;
68976;SDS011;56029;52.568;13.588;2024-01-30T00:17:41;15.93;;;6.90;;
68976;SDS011;56029;52.568;13.588;2024-01-30T00:20:07;15.83;;;7.53;;
68976;SDS011;56029;52.568;13.588;2024-01-30T00:22:32;15.38;;;7.10;;
68976;SDS011;56029;52.568;13.588;2024-01-30T00:24:58;15.63;;;6.97;;
68976;SDS011;56029;52.568;13.588;2024-01-30T00:27:23;16.03;;;7.13;;
68976;SDS011;56029;52.568;13.588;2024-01-30T00:29:49;13.33;;;6.60;;
68976;SDS011;56029;52.568;13.588;2024-01-30T00:32:14;14.07;;;6.87;;
68976;SDS011;56029;52.568;13.588;2024-01-30T00:34:41;14.83;;;7.10;;
68976;SDS011;56029;52.568;13.588;2024-01-30T00:37:07;14.38;;;6.88;;
68976;SDS011;56029;52.568;13.588;2024-01-30T00:39:32;14.50;;;6.87;;
68976;SDS011;56029;52.568;13.588;2024-01-30T00:41:58;15.27;;;6.93;;
68976;SDS011;56029;52.568;13.588;2024-01-30T00:44:23;15.43;;;7.00;;
68976;SDS011;56029;52.568;13.588;2024-01-30T00:46:49;15.00;;;7.30;;
68976;SDS011;56029;52.568;13.588;2024-01-30T00:49:15;15.98;;;7.03;;
68976;SDS011;56029;52.568;13.588;2024-01-30T00:51:40;14.93;;;7.27;;
68976;SDS011;56029;52.568;13.588;2024-01-30T00:54:06;13.63;;;6.70;;
68976;SDS011;56029;52.568;13.588;2024-01-30T00:56:32;16.73;;;7.25;;
68976;SDS011;56029;52.568;13.588;2024-01-30T00:58:58;16.85;;;7.05;;
68976;SDS011;56029;52.568;13.588;2024-01-30T01:01:24;12.47;;;6.47;;
68976;SDS011;56029;52.568;13.588;2024-01-30T01:03:49;14.00;;;6.37;;
68976;SDS011;56029;52.568;13.588;2024-01-30T01:06:15;15.35;;;6.80;;
68976;SDS011;56029;52.568;13.588;2024-01-30T01:08:40;13.83;;;6.30;;
68976;SDS011;56029;52.568;13.588;2024-01-30T01:11:06;13.37;;;6.33;;
68976;SDS011;56029;52.568;13.588;2024-01-30T01:13:31;14.60;;;6.93;;
68976;SDS011;56029;52.568;13.588;2024-01-30T01:15:57;14.85;;;6.97;;
68976;SDS011;56029;52.568;13.588;2024-01-30T01:18:22;15.77;;;7.63;;
68976;SDS011;56029;52.568;13.588;2024-01-30T01:20:48;13.32;;;6.43;;
68976;SDS011;56029;52.568;13.588;2024-01-30T01:23:14;13.90;;;6.33;;
68976;SDS011;56029;52.568;13.588;2024-01-30T01:25:39;13.60;;;6.63;;
68976;SDS011;56029;52.568;13.588;2024-01-30T01:28:05;15.13;;;6.80;;
68976;SDS011;56029;52.568;13.588;2024-01-30T01:30:31;15.20;;;6.87;;
68976;SDS011;56029;52.568;13.588;2024-01-30T01:32:56;15.13;;;7.15;;
68976;SDS011;56029;52.568;13.588;2024-01-30T01:35:22;16.63;;;7.33;;
68976;SDS011;56029;52.568;13.588;2024-01-30T01:37:48;15.90;;;7.00;;
68976;SDS011;56029;52.568;13.588;2024-01-30T01:40:14;14.23;;;7.00;;
68976;SDS011;56029;52.568;13.588;2024-01-30T01:42:39;14.20;;;6.20;;
68976;SDS011;56029;52.568;13.588;2024-01-30T01:45:05;15.07;;;6.60;;
68976;SDS011;56029;52.568;13.588;2024-01-30T01:47:30;14.47;;;6.63;;
68976;SDS011;56029;52.568;13.588;2024-01-30T01:49:56;15.20;;;6.73;;
68976;SDS011;56029;52.568;13.588;2024-01-30T01:52:23;13.50;;;6.20;;
68976;SDS011;56029;52.568;13.588;2024-01-30T01:54:49;15.73;;;6.93;;
68976;SDS011;56029;52.568;13.588;2024-01-30T01:57:14;14.13;;;6.45;;
68976;SDS011;56029;52.568;13.588;2024-01-30T01:59:40;14.07;;;7.10;;
68976;SDS011;56029;52.568;13.588;2024-01-30T02:02:05;14.53;;;7.17;;
68976;SDS011;56029;52.568;13.588;2024-01-30T02:04:34;13.13;;;6.82;;
68976;SDS011;56029;52.568;13.588;2024-01-30T02:07:00;13.40;;;6.20;;
68976;SDS011;56029;52.568;13.588;2024-01-30T02:09:25;14.95;;;6.65;;
68976;SDS011;56029;52.568;13.588;2024-01-30T02:11:51;14.93;;;6.50;;
68976;SDS011;56029;52.568;13.588;2024-01-30T02:14:16;13.30;;;6.43;;
68976;SDS011;56029;52.568;13.588;2024-01-30T02:16:42;17.23;;;7.35;;
68976;SDS011;56029;52.568;13.588;2024-01-30T02:19:07;13.80;;;6.20;;
68976;SDS011;56029;52.568;13.588;2024-01-30T02:21:33;12.53;;;6.00;;
68976;SDS011;56029;52.568;13.588;2024-01-30T02:23:59;16.38;;;7.15;;
68976;SDS011;56029;52.568;13.588;2024-01-30T02:26:24;14.07;;;6.80;;
68976;SDS011;56029;52.568;13.588;2024-01-30T02:28:50;13.32;;;6.50;;
68976;SDS011;56029;52.568;13.588;2024-01-30T02:31:16;14.17;;;6.70;;
68976;SDS011;56029;52.568;13.588;2024-01-30T02:33:41;13.70;;;6.40;;
68976;SDS011;56029;52.568;13.588;2024-01-30T02:36:07;15.13;;;6.67;;
68976;SDS011;56029;52.568;13.588;2024-01-30T02:38:32;15.53;;;6.73;;
68976;SDS011;56029;52.568;13.588;2024-01-30T02:40:58;14.88;;;6.88;;
68976;SDS011;56029;52.568;13.588;2024-01-30T02:43:23;15.80;;;6.90;;
68976;SDS011;56029;52.568;13.588;2024-01-30T02:45:49;15.87;;;6.93;;
68976;SDS011;56029;52.568;13.588;2024-01-30T02:48:15;16.65;;;7.18;;
68976;SDS011;56029;52.568;13.588;2024-01-30T02:50:40;13.83;;;6.60;;
68976;SDS011;56029;52.568;13.588;2024-01-30T02:53:06;16.60;;;6.90;;
68976;SDS011;56029;52.568;13.588;2024-01-30T02:55:31;15.97;;;7.17;;
68976;SDS011;56029;52.568;13.588;2024-01-30T02:57:57;16.13;;;7.30;;
68976;SDS011;56029;52.568;13.588;2024-01-30T03:00:23;14.13;;;6.97;;
68976;SDS011;56029;52.568;13.588;2024-01-30T03:02:49;15.77;;;7.07;;
68976;SDS011;56029;52.568;13.588;2024-01-30T03:05:14;14.90;;;7.23;;
68976;SDS011;56029;52.568;13.588;2024-01-30T03:07:40;17.20;;;7.20;;
68976;SDS011;56029;52.568;13.588;2024-01-30T03:10:05;17.20;;;7.25;;
68976;SDS011;56029;52.568;13.588;2024-01-30T03:12:32;16.53;;;6.47;;
68976;SDS011;56029;52.568;13.588;2024-01-30T03:14:57;15.30;;;7.10;;
68976;SDS011;56029;52.568;13.588;2024-01-30T03:17:23;14.52;;;6.70;;
68976;SDS011;56029;52.568;13.588;2024-01-30T03:19:48;14.63;;;6.95;;
68976;SDS011;56029;52.568;13.588;2024-01-30T03:22:14;14.60;;;7.00;;
68976;SDS011;56029;52.568;13.588;2024-01-30T03:24:39;15.10;;;7.70;;
68976;SDS011;56029;52.568;13.588;2024-01-30T03:27:05;14.30;;;6.78;;
68976;SDS011;56029;52.568;13.588;2024-01-30T03:29:30;18.07;;;7.37;;
68976;SDS011;56029;52.568;13.588;2024-01-30T03:31:56;16.17;;;7.10;;
68976;SDS011;56029;52.568;13.588;2024-01-30T03:34:21;14.23;;;6.90;;
68976;SDS011;56029;52.568;13.588;2024-01-30T03:36:47;15.77;;;7.47;;
68976;SDS011;56029;52.568;13.588;2024-01-30T03:39:12;14.80;;;7.17;;
68976;SDS011;56029;52.568;13.588;2024-01-30T03:41:41;15.85;;;7.45;;
68976;SDS011;56029;52.568;13.588;2024-01-30T03:44:07;14.73;;;7.20;;
68976;SDS011;56029;52.568;13.588;2024-01-30T03:46:33;16.53;;;7.43;;
68976;SDS011;56029;52.568;13.588;2024-01-30T03:48:58;16.50;;;7.00;;
68976;SDS011;56029;52.568;13.588;2024-01-30T03:51:24;15.15;;;6.80;;
68976;SDS011;56029;52.568;13.588;2024-01-30T03:53:49;17.10;;;7.37;;
68976;SDS011;56029;52.568;13.588;2024-01-30T03:56:15;17.20;;;7.03;;
68976;SDS011;56029;52.568;13.588;2024-01-30T03:58:40;16.60;;;7.22;;
68976;SDS011;56029;52.568;13.588;2024-01-30T04:01:06;14.67;;;6.77;;
68976;SDS011;56029;52.568;13.588;2024-01-30T04:03:32;17.98;;;7.50;;
68976;SDS011;56029;52.568;13.588;2024-01-30T04:05:58;15.63;;;7.07;;
68976;SDS011;56029;52.568;13.588;2024-01-30T04:08:23;17.43;;;7.10;;
68976;SDS011;56029;52.568;13.588;2024-01-30T04:10:49;16.95;;;7.47;;
68976;SDS011;56029;52.568;13.588;2024-01-30T04:13:14;16.10;;;7.93;;
68976;SDS011;56029;52.568;13.588;2024-01-30T04:15:40;16.77;;;7.90;;
68976;SDS011;56029;52.568;13.588;2024-01-30T04:18:06;15.90;;;7.90;;
68976;SDS011;56029;52.568;13.588;2024-01-30T04:20:32;16.70;;;7.90;;
68976;SDS011;56029;52.568;13.588;2024-01-30T04:22:57;17.07;;;7.87;;
68976;SDS011;56029;52.568;13.588;2024-01-30T04:25:23;16.83;;;8.20;;
68976;SDS011;56029;52.568;13.588;2024-01-30T04:27:48;16.48;;;7.70;;
68976;SDS011;56029;52.568;13.588;2024-01-30T04:30:14;16.47;;;8.13;;
68976;SDS011;56029;52.568;13.588;2024-01-30T04:32:39;14.53;;;7.80;;
68976;SDS011;56029;52.568;13.588;2024-01-30T04:35:05;18.27;;;8.20;;
68976;SDS011;56029;52.568;13.588;2024-01-30T04:37:31;15.80;;;8.00;;
68976;SDS011;56029;52.568;13.588;2024-01-30T04:39:57;16.85;;;8.13;;
68976;SDS011;56029;52.568;13.588;2024-01-30T04:42:22;17.83;;;7.93;;
68976;SDS011;56029;52.568;13.588;2024-01-30T04:44:48;16.85;;;8.57;;
68976;SDS011;56029;52.568;13.588;2024-01-30T04:47:13;18.30;;;8.23;;
68976;SDS011;56029;52.568;13.588;2024-01-30T04:49:39;19.70;;;8.50;;
68976;SDS011;56029;52.568;13.588;2024-01-30T04:52:05;15.65;;;7.82;;
68976;SDS011;56029;52.568;13.588;2024-01-30T04:54:31;18.20;;;8.73;;
68976;SDS011;56029;52.568;13.588;2024-01-30T04:56:57;16.77;;;8.23;;
68976;SDS011;56029;52.568;13.588;2024-01-30T04:59:22;17.87;;;8.90;;
68976;SDS011;56029;52.568;13.588;2024-01-30T05:01:48;17.80;;;9.38;;
68976;SDS011;56029;52.568;13.588;2024-01-30T05:04:13;17.97;;;8.20;;
68976;SDS011;56029;52.568;13.588;2024-01-30T05:06:39;18.63;;;8.63;;
68976;SDS011;56029;52.568;13.588;2024-01-30T05:09:04;17.02;;;8.63;;
68976;SDS011;56029;52.568;13.588;2024-01-30T05:11:30;18.33;;;8.47;;
68976;SDS011;56029;52.568;13.588;2024-01-30T05:13:56;18.95;;;8.52;;
68976;SDS011;56029;52.568;13.588;2024-01-30T05:16:21;16.60;;;8.70;;
68976;SDS011;56029;52.568;13.588;2024-01-30T05:18:48;18.73;;;9.05;;
68976;SDS011;56029;52.568;13.588;2024-01-30T05:21:13;19.60;;;8.90;;
68976;SDS011;56029;52.568;13.588;2024-01-30T05:23:39;18.63;;;9.18;;
68976;SDS011;56029;52.568;13.588;2024-01-30T05:26:04;17.67;;;8.90;;
68976;SDS011;56029;52.568;13.588;2024-01-30T05:28:30;18.23;;;8.50;;
68976;SDS011;56029;52.568;13.588;2024-01-30T05:30:55;16.63;;;8.55;;
68976;SDS011;56029;52.568;13.588;2024-01-30T05:33:21;21.40;;;9.17;;
68976;SDS011;56029;52.568;13.588;2024-01-30T05:35:47;19.13;;;8.95;;
68976;SDS011;56029;52.568;13.588;2024-01-30T05:38:13;17.30;;;8.40;;
68976;SDS011;56029;52.568;13.588;2024-01-30T05:40:38;16.35;;;8.27;;
68976;SDS011;56029;52.568;13.588;2024-01-30T05:43:04;17.80;;;8.90;;
68976;SDS011;56029;52.568;13.588;2024-01-30T05:45:29;17.40;;;8.77;;
68976;SDS011;56029;52.568;13.588;2024-01-30T05:47:55;19.50;;;9.00;;
68976;SDS011;56029;52.568;13.588;2024-01-30T05:50:20;18.10;;;8.83;;
68976;SDS011;56029;52.568;13.588;2024-01-30T05:52:46;19.03;;;9.27;;
68976;SDS011;56029;52.568;13.588;2024-01-30T05:55:12;19.17;;;8.73;;
68976;SDS011;56029;52.568;13.588;2024-01-30T05:57:38;17.37;;;8.97;;
68976;SDS011;56029;52.568;13.588;2024-01-30T06:00:04;21.70;;;9.30;;
68976;SDS011;56029;52.568;13.588;2024-01-30T06:02:30;19.38;;;8.95;;
68976;SDS011;56029;52.568;13.588;2024-01-30T06:04:56;17.20;;;8.53;;
68976;SDS011;56029;52.568;13.588;2024-01-30T06:07:22;18.85;;;9.07;;
68976;SDS011;56029;52.568;13.588;2024-01-30T06:09:47;20.33;;;9.03;;
68976;SDS011;56029;52.568;13.588;2024-01-30T06:12:13;20.03;;;9.10;;
68976;SDS011;56029;52.568;13.588;2024-01-30T06:14:38;18.83;;;8.40;;
68976;SDS011;56029;52.568;13.588;2024-01-30T06:17:04;21.63;;;9.20;;
68976;SDS011;56029;52.568;13.588;2024-01-30T06:19:30;20.13;;;8.93;;
68976;SDS011;56029;52.568;13.588;2024-01-30T06:21:55;21.45;;;9.90;;
68976;SDS011;56029;52.568;13.588;2024-01-30T06:24:21;21.67;;;9.27;;
68976;SDS011;56029;52.568;13.588;2024-01-30T06:26:46;21.80;;;9.40;;
68976;SDS011;56029;52.568;13.588;2024-01-30T06:29:12;19.73;;;9.63;;
68976;SDS011;56029;52.568;13.588;2024-01-30T06:31:40;18.30;;;9.37;;
68976;SDS011;56029;52.568;13.588;2024-01-30T06:34:06;19.45;;;9.43;;
68976;SDS011;56029;52.568;13.588;2024-01-30T06:36:31;19.27;;;9.43;;
68976;SDS011;56029;52.568;13.588;2024-01-30T06:38:57;19.52;;;9.18;;
68976;SDS011;56029;52.568;13.588;2024-01-30T06:41:22;18.63;;;9.53;;
68976;SDS011;56029;52.568;13.588;2024-01-30T06:43:48;20.30;;;9.40;;
68976;SDS011;56029;52.568;13.588;2024-01-30T06:46:14;19.27;;;9.77;;
68976;SDS011;56029;52.568;13.588;2024-01-30T06:48:39;19.10;;;9.20;;
68976;SDS011;56029;52.568;13.588;2024-01-30T06:51:05;21.70;;;9.80;;
68976;SDS011;56029;52.568;13.588;2024-01-30T06:53:30;20.97;;;9.23;;
68976;SDS011;56029;52.568;13.588;2024-01-30T06:55:56;19.07;;;9.23;;
68976;SDS011;56029;52.568;13.588;2024-01-30T06:58:21;20.90;;;9.50;;
68976;SDS011;56029;52.568;13.588;2024-01-30T07:00:47;20.48;;;9.60;;
68976;SDS011;56029;52.568;13.588;2024-01-30T07:03:12;19.73;;;9.83;;
68976;SDS011;56029;52.568;13.588;2024-01-30T07:05:38;21.20;;;9.43;;
68976;SDS011;56029;52.568;13.588;2024-01-30T07:08:03;17.83;;;9.20;;
68976;SDS011;56029;52.568;13.588;2024-01-30T07:10:29;18.45;;;9.38;;
68976;SDS011;56029;52.568;13.588;2024-01-30T07:12:55;19.20;;;9.97;;
68976;SDS011;56029;52.568;13.588;2024-01-30T07:15:20;18.20;;;9.00;;
68976;SDS011;56029;52.568;13.588;2024-01-30T07:17:46;19.30;;;9.87;;
68976;SDS011;56029;52.568;13.588;2024-01-30T07:20:11;20.77;;;10.07;;
68976;SDS011;56029;52.568;13.588;2024-01-30T07:22:37;21.63;;;9.67;;
68976;SDS011;56029;52.568;13.588;2024-01-30T07:25:03;20.38;;;9.32;;
68976;SDS011;56029;52.568;13.588;2024-01-30T07:27:28;17.90;;;9.37;;
68976;SDS011;56029;52.568;13.588;2024-01-30T07:29:54;19.92;;;9.77;;
68976;SDS011;56029;52.568;13.588;2024-01-30T07:32:19;22.07;;;9.83;;
68976;SDS011;56029;52.568;13.588;2024-01-30T07:34:45;19.07;;;8.83;;
68976;SDS011;56029;52.568;13.588;2024-01-30T07:37:10;20.92;;;9.60;;
68976;SDS011;56029;52.568;13.588;2024-01-30T07:39:36;20.47;;;9.03;;
68976;SDS011;56029;52.568;13.588;2024-01-30T07:42:02;19.17;;;9.30;;
68976;SDS011;56029;52.568;13.588;2024-01-30T07:44:27;20.38;;;9.68;;
68976;SDS011;56029;52.568;13.588;2024-01-30T07:46:53;21.80;;;9.80;;
68976;SDS011;56029;52.568;13.588;2024-01-30T07:49:19;19.35;;;9.57;;
68976;SDS011;56029;52.568;13.588;2024-01-30T07:51:44;20.40;;;10.10;;
68976;SDS011;56029;52.568;13.588;2024-01-30T07:54:10;21.33;;;9.57;;
68976;SDS011;56029;52.568;13.588;2024-01-30T07:56:35;21.98;;;9.38;;
68976;SDS011;56029;52.568;13.588;2024-01-30T07:59:01;19.60;;;9.63;;
68976;SDS011;56029;52.568;13.588;2024-01-30T08:01:26;20.53;;;10.07;;
68976;SDS011;56029;52.568;13.588;2024-01-30T08:03:52;19.65;;;9.98;;
68976;SDS011;56029;52.568;13.588;2024-01-30T08:06:17;18.63;;;9.17;;
68976;SDS011;56029;52.568;13.588;2024-01-30T08:08:43;20.30;;;9.47;;
68976;SDS011;56029;52.568;13.588;2024-01-30T08:11:08;22.23;;;10.00;;
68976;SDS011;56029;52.568;13.588;2024-01-30T08:13:34;19.20;;;8.90;;
68976;SDS011;56029;52.568;13.588;2024-01-30T08:15:59;22.73;;;10.00;;
68976;SDS011;56029;52.568;13.588;2024-01-30T08:18:25;21.25;;;10.40;;
68976;SDS011;56029;52.568;13.588;2024-01-30T08:20:50;20.83;;;10.00;;
68976;SDS011;56029;52.568;13.588;2024-01-30T08:23:16;19.17;;;9.57;;
68976;SDS011;56029;52.568;13.588;2024-01-30T08:25:41;22.08;;;9.63;;
68976;SDS011;56029;52.568;13.588;2024-01-30T08:28:07;22.20;;;10.30;;
68976;SDS011;56029;52.568;13.588;2024-01-30T08:30:32;21.37;;;10.90;;
68976;SDS011;56029;52.568;13.588;2024-01-30T08:32:58;21.48;;;10.30;;
68976;SDS011;56029;52.568;13.588;2024-01-30T08:35:23;20.33;;;10.37;;
68976;SDS011;56029;52.568;13.588;2024-01-30T08:37:49;22.33;;;10.63;;
68976;SDS011;56029;52.568;13.588;2024-01-30T08:40:15;21.88;;;11.02;;
68976;SDS011;56029;52.568;13.588;2024-01-30T08:42:40;20.50;;;10.83;;
68976;SDS011;56029;52.568;13.588;2024-01-30T08:45:06;19.43;;;10.10;;
68976;SDS011;56029;52.568;13.588;2024-01-30T08:47:32;20.15;;;10.00;;
68976;SDS011;56029;52.568;13.588;2024-01-30T08:49:57;21.17;;;10.40;;
68976;SDS011;56029;52.568;13.588;2024-01-30T08:52:23;21.55;;;10.52;;
68976;SDS011;56029;52.568;13.588;2024-01-30T08:54:48;22.27;;;10.57;;
68976;SDS011;56029;52.568;13.588;2024-01-30T08:57:14;20.53;;;10.10;;
68976;SDS011;56029;52.568;13.588;2024-01-30T08:59:39;21.27;;;10.40;;
68976;SDS011;56029;52.568;13.588;2024-01-30T09:02:05;20.33;;;10.87;;
68976;SDS011;56029;52.568;13.588;2024-01-30T09:04:30;20.60;;;10.67;;
68976;SDS011;56029;52.568;13.588;2024-01-30T09:06:56;20.45;;;11.00;;
68976;SDS011;56029;52.568;13.588;2024-01-30T09:09:21;18.97;;;10.37;;
68976;SDS011;56029;52.568;13.588;2024-01-30T09:11:47;20.25;;;10.32;;
68976;SDS011;56029;52.568;13.588;2024-01-30T09:14:15;20.00;;;10.33;;
68976;SDS011;56029;52.568;13.588;2024-01-30T09:16:54;20.80;;;9.85;;
68976;SDS011;56029;52.568;13.588;2024-01-30T09:19:20;20.60;;;9.70;;
68976;SDS011;56029;52.568;13.588;2024-01-30T09:21:45;17.20;;;9.40;;
68976;SDS011;56029;52.568;13.588;2024-01-30T09:24:11;17.53;;;9.30;;
68976;SDS011;56029;52.568;13.588;2024-01-30T09:26:36;17.08;;;8.80;;
68976;SDS011;56029;52.568;13.588;2024-01-30T09:29:02;17.50;;;9.37;;
68976;SDS011;56029;52.568;13.588;2024-01-30T09:31:27;19.00;;;8.80;;
68976;SDS011;56029;52.568;13.588;2024-01-30T09:33:53;17.63;;;8.88;;
68976;SDS011;56029;52.568;13.588;2024-01-30T09:36:18;16.37;;;8.33;;
68976;SDS011;56029;52.568;13.588;2024-01-30T09:38:44;18.23;;;8.77;;
68976;SDS011;56029;52.568;13.588;2024-01-30T09:41:09;19.13;;;8.70;;
68976;SDS011;56029;52.568;13.588;2024-01-30T09:43:35;17.57;;;8.90;;
68976;SDS011;56029;52.568;13.588;2024-01-30T09:46:03;18.67;;;8.68;;
68976;SDS011;56029;52.568;13.588;2024-01-30T09:48:30;19.23;;;8.60;;
68976;SDS011;56029;52.568;13.588;2024-01-30T09:50:57;16.92;;;8.95;;
68976;SDS011;56029;52.568;13.588;2024-01-30T09:53:23;21.83;;;9.37;;
68976;SDS011;56029;52.568;13.588;2024-01-30T09:55:49;16.38;;;8.75;;
68976;SDS011;56029;52.568;13.588;2024-01-30T09:58:15;17.73;;;9.23;;
68976;SDS011;56029;52.568;13.588;2024-01-30T10:00:41;17.50;;;9.37;;
68976;SDS011;56029;52.568;13.588;2024-01-30T10:03:06;18.20;;;8.63;;
68976;SDS011;56029;52.568;13.588;2024-01-30T10:05:33;15.15;;;8.00;;
68976;SDS011;56029;52.568;13.588;2024-01-30T10:08:00;17.02;;;8.88;;
68976;SDS011;56029;52.568;13.588;2024-01-30T10:10:26;16.27;;;8.52;;
68976;SDS011;56029;52.568;13.588;2024-01-30T10:12:51;20.13;;;9.33;;
68976;SDS011;56029;52.568;13.588;2024-01-30T10:15:17;18.70;;;9.30;;
68976;SDS011;56029;52.568;13.588;2024-01-30T10:17:44;17.40;;;9.07;;
68976;SDS011;56029;52.568;13.588;2024-01-30T10:20:10;16.77;;;8.40;;
68976;SDS011;56029;52.568;13.588;2024-01-30T10:22:36;16.67;;;8.97;;
68976;SDS011;56029;52.568;13.588;2024-01-30T10:25:01;18.60;;;8.70;;
68976;SDS011;56029;52.568;13.588;2024-01-30T10:27:27;18.87;;;8.53;;
68976;SDS011;56029;52.568;13.588;2024-01-30T10:29:53;15.90;;;8.50;;
68976;SDS011;56029;52.568;13.588;2024-01-30T10:32:19;17.50;;;8.63;;
68976;SDS011;56029;52.568;13.588;2024-01-30T10:34:45;18.63;;;7.97;;
68976;SDS011;56029;52.568;13.588;2024-01-30T10:37:11;15.10;;;8.00;;
68976;SDS011;56029;52.568;13.588;2024-01-30T10:39:37;16.30;;;7.65;;
68976;SDS011;56029;52.568;13.588;2024-01-30T10:42:04;15.97;;;7.87;;
68976;SDS011;56029;52.568;13.588;2024-01-30T10:44:46;15.30;;;7.45;;
68976;SDS011;56029;52.568;13.588;2024-01-30T10:47:21;16.40;;;8.07;;
68976;SDS011;56029;52.568;13.588;2024-01-30T10:49:54;15.52;;;7.75;;
68976;SDS011;56029;52.568;13.588;2024-01-30T10:52:21;13.68;;;7.30;;
68976;SDS011;56029;52.568;13.588;2024-01-30T10:54:48;14.93;;;7.53;;
68976;SDS011;56029;52.568;13.588;2024-01-30T10:57:15;14.35;;;7.32;;
68976;SDS011;56029;52.568;13.588;2024-01-30T10:59:41;14.98;;;7.60;;
68976;SDS011;56029;52.568;13.588;2024-01-30T11:02:08;11.80;;;6.95;;
68976;SDS011;56029;52.568;13.588;2024-01-30T11:04:38;15.63;;;7.32;;
68976;SDS011;56029;52.568;13.588;2024-01-30T11:09:50;13.50;;;6.72;;
68976;SDS011;56029;52.568;13.588;2024-01-30T11:12:16;12.82;;;6.90;;
68976;SDS011;56029;52.568;13.588;2024-01-30T11:14:47;15.05;;;7.25;;
68976;SDS011;56029;52.568;13.588;2024-01-30T11:17:12;14.77;;;7.30;;
68976;SDS011;56029;52.568;13.588;2024-01-30T11:19:38;14.90;;;6.77;;
68976;SDS011;56029;52.568;13.588;2024-01-30T11:22:06;17.30;;;7.57;;
68976;SDS011;56029;52.568;13.588;2024-01-30T11:24:36;14.13;;;6.60;;
68976;SDS011;56029;52.568;13.588;2024-01-30T11:27:07;13.82;;;6.82;;
68976;SDS011;56029;52.568;13.588;2024-01-30T11:29:34;13.70;;;6.82;;
68976;SDS011;56029;52.568;13.588;2024-01-30T11:32:00;14.38;;;6.57;;
68976;SDS011;56029;52.568;13.588;2024-01-30T11:34:25;13.50;;;6.43;;
68976;SDS011;56029;52.568;13.588;2024-01-30T11:36:52;13.55;;;6.47;;
68976;SDS011;56029;52.568;13.588;2024-01-30T11:39:18;14.70;;;6.37;;
68976;SDS011;56029;52.568;13.588;2024-01-30T11:41:45;13.00;;;6.30;;
68976;SDS011;56029;52.568;13.588;2024-01-30T11:44:11;12.43;;;6.18;;
68976;SDS011;56029;52.568;13.588;2024-01-30T11:46:36;16.30;;;6.73;;
68976;SDS011;56029;52.568;13.588;2024-01-30T11:49:02;12.57;;;6.30;;
68976;SDS011;56029;52.568;13.588;2024-01-30T11:51:28;13.53;;;5.90;;
68976;SDS011;56029;52.568;13.588;2024-01-30T11:53:57;13.32;;;6.28;;
68976;SDS011;56029;52.568;13.588;2024-01-30T11:56:23;11.65;;;5.70;;
68976;SDS011;56029;52.568;13.588;2024-01-30T11:58:49;12.05;;;5.90;;
68976;SDS011;56029;52.568;13.588;2024-01-30T12:01:16;13.47;;;6.20;;
68976;SDS011;56029;52.568;13.588;2024-01-30T12:03:42;12.57;;;6.20;;
68976;SDS011;56029;52.568;13.588;2024-01-30T12:06:08;11.97;;;5.97;;
68976;SDS011;56029;52.568;13.588;2024-01-30T12:08:34;15.63;;;6.30;;
68976;SDS011;56029;52.568;13.588;2024-01-30T12:10:59;13.47;;;5.93;;
68976;SDS011;56029;52.568;13.588;2024-01-30T12:13:25;11.43;;;5.93;;
68976;SDS011;56029;52.568;13.588;2024-01-30T12:15:51;11.75;;;5.55;;
68976;SDS011;56029;52.568;13.588;2024-01-30T12:18:20;12.07;;;5.70;;
68976;SDS011;56029;52.568;13.588;2024-01-30T12:20:45;12.57;;;6.07;;
68976;SDS011;56029;52.568;13.588;2024-01-30T12:23:22;11.65;;;6.07;;
68976;SDS011;56029;52.568;13.588;2024-01-30T12:25:47;12.37;;;6.23;;
68976;SDS011;56029;52.568;13.588;2024-01-30T12:28:13;11.77;;;6.00;;
68976;SDS011;56029;52.568;13.588;2024-01-30T12:30:38;13.40;;;6.30;;
68976;SDS011;56029;52.568;13.588;2024-01-30T12:33:04;11.50;;;5.88;;
68976;SDS011;56029;52.568;13.588;2024-01-30T12:35:29;11.33;;;6.40;;
68976;SDS011;56029;52.568;13.588;2024-01-30T12:37:55;13.52;;;6.50;;
68976;SDS011;56029;52.568;13.588;2024-01-30T12:40:21;11.20;;;5.70;;
68976;SDS011;56029;52.568;13.588;2024-01-30T12:42:46;12.98;;;6.07;;
68976;SDS011;56029;52.568;13.588;2024-01-30T12:45:13;14.90;;;6.20;;
68976;SDS011;56029;52.568;13.588;2024-01-30T12:47:39;12.25;;;6.15;;
68976;SDS011;56029;52.568;13.588;2024-01-30T12:50:04;11.87;;;6.23;;
68976;SDS011;56029;52.568;13.588;2024-01-30T12:52:30;11.63;;;6.05;;
68976;SDS011;56029;52.568;13.588;2024-01-30T12:54:56;11.87;;;6.07;;
68976;SDS011;56029;52.568;13.588;2024-01-30T12:57:21;12.18;;;6.55;;
68976;SDS011;56029;52.568;13.588;2024-01-30T12:59:47;12.53;;;6.20;;
68976;SDS011;56029;52.568;13.588;2024-01-30T13:02:13;13.85;;;5.97;;
68976;SDS011;56029;52.568;13.588;2024-01-30T13:04:39;12.03;;;6.27;;
68976;SDS011;56029;52.568;13.588;2024-01-30T13:07:05;12.75;;;6.28;;
68976;SDS011;56029;52.568;13.588;2024-01-30T13:09:30;12.83;;;6.47;;
68976;SDS011;56029;52.568;13.588;2024-01-30T13:11:57;11.50;;;6.50;;
68976;SDS011;56029;52.568;13.588;2024-01-30T13:14:23;13.07;;;6.85;;
68976;SDS011;56029;52.568;13.588;2024-01-30T13:16:49;13.48;;;6.70;;
68976;SDS011;56029;52.568;13.588;2024-01-30T13:19:15;11.57;;;6.20;;
68976;SDS011;56029;52.568;13.588;2024-01-30T13:21:47;11.82;;;6.35;;
68976;SDS011;56029;52.568;13.588;2024-01-30T13:24:13;13.57;;;6.43;;
68976;SDS011;56029;52.568;13.588;2024-01-30T13:26:39;13.98;;;6.70;;
68976;SDS011;56029;52.568;13.588;2024-01-30T13:29:05;14.73;;;6.30;;
68976;SDS011;56029;52.568;13.588;2024-01-30T13:31:30;11.87;;;6.50;;
68976;SDS011;56029;52.568;13.588;2024-01-30T13:33:56;13.50;;;6.73;;
68976;SDS011;56029;52.568;13.588;2024-01-30T13:36:21;13.87;;;6.47;;
68976;SDS011;56029;52.568;13.588;2024-01-30T13:38:47;11.68;;;6.15;;
68976;SDS011;56029;52.568;13.588;2024-01-30T13:41:13;13.23;;;6.43;;
68976;SDS011;56029;52.568;13.588;2024-01-30T13:43:38;12.57;;;6.32;;
68976;SDS011;56029;52.568;13.588;2024-01-30T13:46:04;12.97;;;6.37;;
68976;SDS011;56029;52.568;13.588;2024-01-30T13:48:30;13.90;;;6.65;;
68976;SDS011;56029;52.568;13.588;2024-01-30T13:50:56;12.40;;;6.32;;
68976;SDS011;56029;52.568;13.588;2024-01-30T13:53:22;11.93;;;6.43;;
68976;SDS011;56029;52.568;13.588;2024-01-30T13:55:47;12.37;;;6.60;;
68976;SDS011;56029;52.568;13.588;2024-01-30T13:58:13;13.05;;;6.70;;
68976;SDS011;56029;52.568;13.588;2024-01-30T14:00:38;12.97;;;6.53;;
68976;SDS011;56029;52.568;13.588;2024-01-30T14:03:04;12.57;;;6.25;;
68976;SDS011;56029;52.568;13.588;2024-01-30T14:05:29;11.70;;;6.60;;
68976;SDS011;56029;52.568;13.588;2024-01-30T14:07:55;13.23;;;6.47;;
68976;SDS011;56029;52.568;13.588;2024-01-30T14:10:22;12.95;;;6.65;;
68976;SDS011;56029;52.568;13.588;2024-01-30T14:12:48;12.23;;;6.53;;
68976;SDS011;56029;52.568;13.588;2024-01-30T14:15:13;14.00;;;6.93;;